sensor_id;sensor_type;location;lat;lon;timestamp;P1;durP1;ratioP1;P2;durP2;ratioP2
3417;SDS011;68007;51.312;12.372;2024-01-27T00:02:18;7.40;;;2.17;;
3417;SDS011;68007;51.312;12.372;2024-01-27T00:04:45;4.37;;;2.00;;
3417;SDS011;68007;51.312;12.372;2024-01-27T00:07:14;7.20;;;1.90;;
3417;SDS011;68007;51.312;12.372;2024-01-27T00:09:41;9.50;;;1.90;;
3417;SDS011;68007;51.312;12.372;2024-01-27T00:12:10;7.07;;;1.97;;
3417;SDS011;68007;51.312;12.372;2024-01-27T00:14:37;9.10;;;2.03;;
3417;SDS011;68007;51.312;12.372;2024-01-27T00:17:05;12.07;;;2.67;;
3417;SDS011;68007;51.312;12.372;2024-01-27T00:19:33;10.60;;;2.53;;
3417;SDS011;68007;51.312;12.372;2024-01-27T00:22:00;14.20;;;2.33;;
3417;SDS011;68007;51.312;12.372;2024-01-27T00:24:29;9.87;;;2.40;;
3417;SDS011;68007;51.312;12.372;2024-01-27T00:26:56;7.87;;;1.70;;
3417;SDS011;68007;51.312;12.372;2024-01-27T00:29:25;3.93;;;2.20;;
3417;SDS011;68007;51.312;12.372;2024-01-27T00:31:52;6.30;;;2.37;;
3417;SDS011;68007;51.312;12.372;2024-01-27T00:34:20;6.97;;;2.10;;
3417;SDS011;68007;51.312;12.372;2024-01-27T00:36:48;17.73;;;2.53;;
3417;SDS011;68007;51.312;12.372;2024-01-27T00:39:15;7.43;;;2.13;;
3417;SDS011;68007;51.312;12.372;2024-01-27T00:41:44;9.90;;;2.47;;
3417;SDS011;68007;51.312;12.372;2024-01-27T00:44:12;11.60;;;1.80;;
3417;SDS011;68007;51.312;12.372;2024-01-27T00:46:41;15.77;;;2.20;;
3417;SDS011;68007;51.312;12.372;2024-01-27T00:49:08;8.90;;;2.00;;
3417;SDS011;68007;51.312;12.372;2024-01-27T00:51:36;13.97;;;2.87;;
3417;SDS011;68007;51.312;12.372;2024-01-27T00:54:03;9.43;;;2.17;;
3417;SDS011;68007;51.312;12.372;2024-01-27T00:56:31;14.17;;;2.67;;
3417;SDS011;68007;51.312;12.372;2024-01-27T00:58:59;8.33;;;2.03;;
3417;SDS011;68007;51.312;12.372;2024-01-27T01:01:26;10.83;;;2.70;;
3417;SDS011;68007;51.312;12.372;2024-01-27T01:03:55;7.23;;;2.20;;
3417;SDS011;68007;51.312;12.372;2024-01-27T01:06:23;13.07;;;2.77;;
3417;SDS011;68007;51.312;12.372;2024-01-27T01:08:50;15.70;;;3.60;;
3417;SDS011;68007;51.312;12.372;2024-01-27T01:11:18;13.40;;;2.63;;
3417;SDS011;68007;51.312;12.372;2024-01-27T01:13:45;9.13;;;2.83;;
3417;SDS011;68007;51.312;12.372;2024-01-27T01:16:13;10.27;;;3.27;;
3417;SDS011;68007;51.312;12.372;2024-01-27T01:18:40;15.50;;;3.30;;
3417;SDS011;68007;51.312;12.372;2024-01-27T01:21:09;10.80;;;2.60;;
3417;SDS011;68007;51.312;12.372;2024-01-27T01:23:37;14.60;;;3.43;;
3417;SDS011;68007;51.312;12.372;2024-01-27T01:26:04;14.13;;;2.60;;
3417;SDS011;68007;51.312;12.372;2024-01-27T01:28:31;8.30;;;2.23;;
3417;SDS011;68007;51.312;12.372;2024-01-27T01:30:59;15.20;;;3.10;;
3417;SDS011;68007;51.312;12.372;2024-01-27T01:33:27;10.67;;;3.17;;
3417;SDS011;68007;51.312;12.372;2024-01-27T01:35:54;6.67;;;2.30;;
3417;SDS011;68007;51.312;12.372;2024-01-27T01:38:23;13.87;;;2.50;;
3417;SDS011;68007;51.312;12.372;2024-01-27T01:40:51;7.70;;;2.47;;
3417;SDS011;68007;51.312;12.372;2024-01-27T01:43:18;7.23;;;2.10;;
3417;SDS011;68007;51.312;12.372;2024-01-27T01:45:46;7.53;;;2.20;;
3417;SDS011;68007;51.312;12.372;2024-01-27T01:48:13;10.50;;;1.93;;
3417;SDS011;68007;51.312;12.372;2024-01-27T01:50:41;18.23;;;2.70;;
3417;SDS011;68007;51.312;12.372;2024-01-27T01:53:09;11.23;;;2.10;;
3417;SDS011;68007;51.312;12.372;2024-01-27T01:55:38;10.70;;;2.00;;
3417;SDS011;68007;51.312;12.372;2024-01-27T01:58:05;9.47;;;2.17;;
3417;SDS011;68007;51.312;12.372;2024-01-27T02:00:33;12.30;;;2.30;;
3417;SDS011;68007;51.312;12.372;2024-01-27T02:03:01;12.87;;;3.50;;
3417;SDS011;68007;51.312;12.372;2024-01-27T02:05:28;7.17;;;1.87;;
3417;SDS011;68007;51.312;12.372;2024-01-27T02:07:56;10.00;;;2.40;;
3417;SDS011;68007;51.312;12.372;2024-01-27T02:10:25;10.53;;;2.33;;
3417;SDS011;68007;51.312;12.372;2024-01-27T02:12:54;10.10;;;2.03;;
3417;SDS011;68007;51.312;12.372;2024-01-27T02:15:23;7.90;;;2.73;;
3417;SDS011;68007;51.312;12.372;2024-01-27T02:17:51;12.53;;;2.50;;
3417;SDS011;68007;51.312;12.372;2024-01-27T02:20:19;6.40;;;1.40;;
3417;SDS011;68007;51.312;12.372;2024-01-27T02:22:46;12.83;;;2.47;;
3417;SDS011;68007;51.312;12.372;2024-01-27T02:25:15;10.77;;;1.80;;
3417;SDS011;68007;51.312;12.372;2024-01-27T02:27:43;8.67;;;2.50;;
3417;SDS011;68007;51.312;12.372;2024-01-27T02:30:10;13.27;;;2.57;;
3417;SDS011;68007;51.312;12.372;2024-01-27T02:32:38;12.97;;;2.77;;
3417;SDS011;68007;51.312;12.372;2024-01-27T02:35:06;11.13;;;2.17;;
3417;SDS011;68007;51.312;12.372;2024-01-27T02:37:34;15.73;;;2.00;;
3417;SDS011;68007;51.312;12.372;2024-01-27T02:40:02;14.10;;;2.10;;
3417;SDS011;68007;51.312;12.372;2024-01-27T02:42:31;10.73;;;2.20;;
3417;SDS011;68007;51.312;12.372;2024-01-27T02:44:58;11.43;;;2.70;;
3417;SDS011;68007;51.312;12.372;2024-01-27T02:47:26;14.93;;;2.90;;
3417;SDS011;68007;51.312;12.372;2024-01-27T02:49:53;16.37;;;3.00;;
3417;SDS011;68007;51.312;12.372;2024-01-27T02:52:21;13.77;;;2.73;;
3417;SDS011;68007;51.312;12.372;2024-01-27T02:54:48;12.70;;;2.80;;
3417;SDS011;68007;51.312;12.372;2024-01-27T02:57:16;13.57;;;2.60;;
3417;SDS011;68007;51.312;12.372;2024-01-27T02:59:46;11.50;;;2.30;;
3417;SDS011;68007;51.312;12.372;2024-01-27T03:02:14;9.50;;;2.43;;
3417;SDS011;68007;51.312;12.372;2024-01-27T03:04:41;14.10;;;3.00;;
3417;SDS011;68007;51.312;12.372;2024-01-27T03:07:09;7.43;;;1.90;;
3417;SDS011;68007;51.312;12.372;2024-01-27T03:09:36;12.03;;;2.50;;
3417;SDS011;68007;51.312;12.372;2024-01-27T03:12:04;9.63;;;2.73;;
3417;SDS011;68007;51.312;12.372;2024-01-27T03:14:32;12.70;;;2.30;;
3417;SDS011;68007;51.312;12.372;2024-01-27T03:17:01;10.23;;;2.57;;
3417;SDS011;68007;51.312;12.372;2024-01-27T03:19:28;8.90;;;2.83;;
3417;SDS011;68007;51.312;12.372;2024-01-27T03:21:56;19.60;;;2.43;;
3417;SDS011;68007;51.312;12.372;2024-01-27T03:24:23;16.83;;;2.90;;
3417;SDS011;68007;51.312;12.372;2024-01-27T03:26:51;5.40;;;1.77;;
3417;SDS011;68007;51.312;12.372;2024-01-27T03:29:19;10.63;;;2.10;;
3417;SDS011;68007;51.312;12.372;2024-01-27T03:31:46;11.93;;;2.37;;
3417;SDS011;68007;51.312;12.372;2024-01-27T03:34:16;9.10;;;2.30;;
3417;SDS011;68007;51.312;12.372;2024-01-27T03:36:47;11.13;;;2.10;;
3417;SDS011;68007;51.312;12.372;2024-01-27T03:39:15;8.70;;;1.90;;
3417;SDS011;68007;51.312;12.372;2024-01-27T03:41:42;13.53;;;2.13;;
3417;SDS011;68007;51.312;12.372;2024-01-27T03:44:10;6.23;;;2.30;;
3417;SDS011;68007;51.312;12.372;2024-01-27T03:46:37;15.60;;;2.67;;
3417;SDS011;68007;51.312;12.372;2024-01-27T03:49:05;11.17;;;2.37;;
3417;SDS011;68007;51.312;12.372;2024-01-27T03:51:34;9.00;;;2.30;;
3417;SDS011;68007;51.312;12.372;2024-01-27T03:54:01;11.00;;;1.90;;
3417;SDS011;68007;51.312;12.372;2024-01-27T03:56:29;10.43;;;2.43;;
3417;SDS011;68007;51.312;12.372;2024-01-27T03:58:57;12.03;;;2.40;;
3417;SDS011;68007;51.312;12.372;2024-01-27T04:01:24;17.17;;;3.07;;
3417;SDS011;68007;51.312;12.372;2024-01-27T04:03:52;12.43;;;2.67;;
3417;SDS011;68007;51.312;12.372;2024-01-27T04:06:19;14.03;;;2.97;;
3417;SDS011;68007;51.312;12.372;2024-01-27T04:08:48;9.33;;;2.50;;
3417;SDS011;68007;51.312;12.372;2024-01-27T04:11:19;10.10;;;2.50;;
3417;SDS011;68007;51.312;12.372;2024-01-27T04:13:48;9.07;;;2.30;;
3417;SDS011;68007;51.312;12.372;2024-01-27T04:16:17;19.50;;;2.63;;
3417;SDS011;68007;51.312;12.372;2024-01-27T04:18:44;11.30;;;2.77;;
3417;SDS011;68007;51.312;12.372;2024-01-27T04:21:12;14.03;;;3.37;;
3417;SDS011;68007;51.312;12.372;2024-01-27T04:23:40;12.00;;;2.37;;
3417;SDS011;68007;51.312;12.372;2024-01-27T04:26:09;13.60;;;2.03;;
3417;SDS011;68007;51.312;12.372;2024-01-27T04:28:36;7.37;;;2.20;;
3417;SDS011;68007;51.312;12.372;2024-01-27T04:31:04;8.37;;;1.83;;
3417;SDS011;68007;51.312;12.372;2024-01-27T04:33:31;11.30;;;2.20;;
3417;SDS011;68007;51.312;12.372;2024-01-27T04:35:59;15.40;;;2.67;;
3417;SDS011;68007;51.312;12.372;2024-01-27T04:38:26;14.60;;;2.90;;
3417;SDS011;68007;51.312;12.372;2024-01-27T04:40:54;10.60;;;2.20;;
3417;SDS011;68007;51.312;12.372;2024-01-27T04:43:23;10.53;;;2.80;;
3417;SDS011;68007;51.312;12.372;2024-01-27T04:45:51;17.97;;;3.13;;
3417;SDS011;68007;51.312;12.372;2024-01-27T04:48:18;4.97;;;1.80;;
3417;SDS011;68007;51.312;12.372;2024-01-27T04:50:45;13.43;;;2.50;;
3417;SDS011;68007;51.312;12.372;2024-01-27T04:53:14;10.43;;;2.13;;
3417;SDS011;68007;51.312;12.372;2024-01-27T04:55:41;15.43;;;2.20;;
3417;SDS011;68007;51.312;12.372;2024-01-27T04:58:09;9.73;;;2.63;;
3417;SDS011;68007;51.312;12.372;2024-01-27T05:00:38;11.73;;;2.50;;
3417;SDS011;68007;51.312;12.372;2024-01-27T05:03:05;8.93;;;2.30;;
3417;SDS011;68007;51.312;12.372;2024-01-27T05:05:40;9.30;;;2.20;;
3417;SDS011;68007;51.312;12.372;2024-01-27T05:08:08;11.30;;;2.00;;
3417;SDS011;68007;51.312;12.372;2024-01-27T05:10:36;12.53;;;4.17;;
3417;SDS011;68007;51.312;12.372;2024-01-27T05:13:03;14.43;;;2.33;;
3417;SDS011;68007;51.312;12.372;2024-01-27T05:15:31;13.33;;;2.07;;
3417;SDS011;68007;51.312;12.372;2024-01-27T05:17:59;12.33;;;3.47;;
3417;SDS011;68007;51.312;12.372;2024-01-27T05:20:27;10.63;;;2.30;;
3417;SDS011;68007;51.312;12.372;2024-01-27T05:22:54;11.10;;;2.67;;
3417;SDS011;68007;51.312;12.372;2024-01-27T05:25:22;22.73;;;3.00;;
3417;SDS011;68007;51.312;12.372;2024-01-27T05:27:49;12.63;;;2.50;;
3417;SDS011;68007;51.312;12.372;2024-01-27T05:30:17;22.70;;;3.37;;
3417;SDS011;68007;51.312;12.372;2024-01-27T05:32:44;14.33;;;3.23;;
3417;SDS011;68007;51.312;12.372;2024-01-27T05:35:14;18.23;;;2.43;;
3417;SDS011;68007;51.312;12.372;2024-01-27T05:37:41;19.27;;;3.10;;
3417;SDS011;68007;51.312;12.372;2024-01-27T05:40:09;20.10;;;2.63;;
3417;SDS011;68007;51.312;12.372;2024-01-27T05:42:37;10.90;;;2.60;;
3417;SDS011;68007;51.312;12.372;2024-01-27T05:45:06;12.23;;;2.60;;
3417;SDS011;68007;51.312;12.372;2024-01-27T05:47:35;14.97;;;2.73;;
3417;SDS011;68007;51.312;12.372;2024-01-27T05:50:03;12.47;;;2.60;;
3417;SDS011;68007;51.312;12.372;2024-01-27T05:52:35;10.87;;;2.57;;
3417;SDS011;68007;51.312;12.372;2024-01-27T05:55:02;11.10;;;2.50;;
3417;SDS011;68007;51.312;12.372;2024-01-27T05:57:32;16.70;;;2.33;;
3417;SDS011;68007;51.312;12.372;2024-01-27T05:59:59;11.60;;;2.80;;
3417;SDS011;68007;51.312;12.372;2024-01-27T06:02:27;19.17;;;3.50;;
3417;SDS011;68007;51.312;12.372;2024-01-27T06:04:54;15.37;;;3.40;;
3417;SDS011;68007;51.312;12.372;2024-01-27T06:07:22;12.10;;;2.70;;
3417;SDS011;68007;51.312;12.372;2024-01-27T06:09:51;23.20;;;3.37;;
3417;SDS011;68007;51.312;12.372;2024-01-27T06:12:19;14.77;;;2.90;;
3417;SDS011;68007;51.312;12.372;2024-01-27T06:14:47;17.37;;;4.27;;
3417;SDS011;68007;51.312;12.372;2024-01-27T06:17:16;19.50;;;3.37;;
3417;SDS011;68007;51.312;12.372;2024-01-27T06:19:43;18.23;;;2.87;;
3417;SDS011;68007;51.312;12.372;2024-01-27T06:22:11;8.60;;;2.30;;
3417;SDS011;68007;51.312;12.372;2024-01-27T06:24:41;11.03;;;2.27;;
3417;SDS011;68007;51.312;12.372;2024-01-27T06:27:10;13.57;;;2.60;;
3417;SDS011;68007;51.312;12.372;2024-01-27T06:29:38;13.67;;;2.73;;
3417;SDS011;68007;51.312;12.372;2024-01-27T06:32:07;9.90;;;2.40;;
3417;SDS011;68007;51.312;12.372;2024-01-27T06:34:35;19.53;;;3.10;;
3417;SDS011;68007;51.312;12.372;2024-01-27T06:37:02;15.70;;;3.10;;
3417;SDS011;68007;51.312;12.372;2024-01-27T06:39:30;18.97;;;3.73;;
3417;SDS011;68007;51.312;12.372;2024-01-27T06:41:58;13.73;;;2.60;;
3417;SDS011;68007;51.312;12.372;2024-01-27T06:44:27;18.77;;;3.17;;
3417;SDS011;68007;51.312;12.372;2024-01-27T06:46:55;10.57;;;2.90;;
3417;SDS011;68007;51.312;12.372;2024-01-27T06:49:22;17.87;;;3.37;;
3417;SDS011;68007;51.312;12.372;2024-01-27T06:51:50;20.90;;;2.63;;
3417;SDS011;68007;51.312;12.372;2024-01-27T06:54:17;16.97;;;2.87;;
3417;SDS011;68007;51.312;12.372;2024-01-27T06:56:44;10.27;;;2.87;;
3417;SDS011;68007;51.312;12.372;2024-01-27T06:59:12;22.60;;;3.20;;
3417;SDS011;68007;51.312;12.372;2024-01-27T07:01:46;20.90;;;3.30;;
3417;SDS011;68007;51.312;12.372;2024-01-27T07:04:14;13.87;;;3.37;;
3417;SDS011;68007;51.312;12.372;2024-01-27T07:06:41;20.83;;;3.17;;
3417;SDS011;68007;51.312;12.372;2024-01-27T07:09:09;13.27;;;2.67;;
3417;SDS011;68007;51.312;12.372;2024-01-27T07:11:37;11.57;;;2.67;;
3417;SDS011;68007;51.312;12.372;2024-01-27T07:14:05;10.37;;;2.40;;
3417;SDS011;68007;51.312;12.372;2024-01-27T07:16:33;11.30;;;3.03;;
3417;SDS011;68007;51.312;12.372;2024-01-27T07:19:02;15.80;;;3.00;;
3417;SDS011;68007;51.312;12.372;2024-01-27T07:21:30;12.63;;;3.00;;
3417;SDS011;68007;51.312;12.372;2024-01-27T07:23:57;12.33;;;2.97;;
3417;SDS011;68007;51.312;12.372;2024-01-27T07:26:28;14.13;;;2.27;;
3417;SDS011;68007;51.312;12.372;2024-01-27T07:28:55;18.90;;;3.37;;
3417;SDS011;68007;51.312;12.372;2024-01-27T07:31:23;11.50;;;2.50;;
3417;SDS011;68007;51.312;12.372;2024-01-27T07:33:52;14.63;;;1.93;;
3417;SDS011;68007;51.312;12.372;2024-01-27T07:36:21;11.83;;;3.47;;
3417;SDS011;68007;51.312;12.372;2024-01-27T07:38:48;12.60;;;2.93;;
3417;SDS011;68007;51.312;12.372;2024-01-27T07:41:16;8.03;;;2.87;;
3417;SDS011;68007;51.312;12.372;2024-01-27T07:43:43;15.67;;;3.17;;
3417;SDS011;68007;51.312;12.372;2024-01-27T07:46:11;13.80;;;2.90;;
3417;SDS011;68007;51.312;12.372;2024-01-27T07:48:38;9.77;;;3.33;;
3417;SDS011;68007;51.312;12.372;2024-01-27T07:51:06;16.60;;;3.17;;
3417;SDS011;68007;51.312;12.372;2024-01-27T07:53:35;12.10;;;2.00;;
3417;SDS011;68007;51.312;12.372;2024-01-27T07:56:03;10.23;;;2.67;;
3417;SDS011;68007;51.312;12.372;2024-01-27T07:58:32;23.83;;;3.00;;
3417;SDS011;68007;51.312;12.372;2024-01-27T08:00:59;11.80;;;2.60;;
3417;SDS011;68007;51.312;12.372;2024-01-27T08:03:27;9.43;;;2.30;;
3417;SDS011;68007;51.312;12.372;2024-01-27T08:05:55;14.93;;;2.63;;
3417;SDS011;68007;51.312;12.372;2024-01-27T08:08:22;9.33;;;3.27;;
3417;SDS011;68007;51.312;12.372;2024-01-27T08:10:51;11.47;;;2.27;;
3417;SDS011;68007;51.312;12.372;2024-01-27T08:13:19;14.80;;;2.70;;
3417;SDS011;68007;51.312;12.372;2024-01-27T08:15:46;14.50;;;2.90;;
3417;SDS011;68007;51.312;12.372;2024-01-27T08:18:14;10.07;;;2.60;;
3417;SDS011;68007;51.312;12.372;2024-01-27T08:20:41;15.67;;;2.73;;
3417;SDS011;68007;51.312;12.372;2024-01-27T08:23:09;14.90;;;2.63;;
3417;SDS011;68007;51.312;12.372;2024-01-27T08:25:37;15.90;;;2.50;;
3417;SDS011;68007;51.312;12.372;2024-01-27T08:28:07;21.70;;;2.70;;
3417;SDS011;68007;51.312;12.372;2024-01-27T08:30:35;9.60;;;2.70;;
3417;SDS011;68007;51.312;12.372;2024-01-27T08:33:04;16.67;;;2.63;;
3417;SDS011;68007;51.312;12.372;2024-01-27T08:35:31;14.50;;;3.20;;
3417;SDS011;68007;51.312;12.372;2024-01-27T08:37:59;9.80;;;2.30;;
3417;SDS011;68007;51.312;12.372;2024-01-27T08:40:26;14.00;;;4.07;;
3417;SDS011;68007;51.312;12.372;2024-01-27T08:42:54;11.87;;;3.07;;
3417;SDS011;68007;51.312;12.372;2024-01-27T08:45:23;12.83;;;3.53;;
3417;SDS011;68007;51.312;12.372;2024-01-27T08:47:52;10.43;;;3.43;;
3417;SDS011;68007;51.312;12.372;2024-01-27T08:50:19;14.80;;;3.40;;
3417;SDS011;68007;51.312;12.372;2024-01-27T08:52:47;18.07;;;2.73;;
3417;SDS011;68007;51.312;12.372;2024-01-27T08:55:15;25.53;;;3.53;;
3417;SDS011;68007;51.312;12.372;2024-01-27T08:57:44;10.20;;;3.70;;
3417;SDS011;68007;51.312;12.372;2024-01-27T09:00:13;13.00;;;4.00;;
3417;SDS011;68007;51.312;12.372;2024-01-27T09:02:43;10.13;;;3.00;;
3417;SDS011;68007;51.312;12.372;2024-01-27T09:05:11;11.17;;;2.50;;
3417;SDS011;68007;51.312;12.372;2024-01-27T09:07:38;16.37;;;2.70;;
3417;SDS011;68007;51.312;12.372;2024-01-27T09:10:06;18.90;;;3.47;;
3417;SDS011;68007;51.312;12.372;2024-01-27T09:12:35;11.67;;;3.30;;
3417;SDS011;68007;51.312;12.372;2024-01-27T09:15:03;18.13;;;3.13;;
3417;SDS011;68007;51.312;12.372;2024-01-27T09:17:31;19.87;;;4.47;;
3417;SDS011;68007;51.312;12.372;2024-01-27T09:20:00;17.10;;;4.00;;
3417;SDS011;68007;51.312;12.372;2024-01-27T09:22:28;18.97;;;3.70;;
3417;SDS011;68007;51.312;12.372;2024-01-27T09:24:56;27.60;;;4.50;;
3417;SDS011;68007;51.312;12.372;2024-01-27T09:27:23;23.40;;;4.77;;
3417;SDS011;68007;51.312;12.372;2024-01-27T09:29:51;14.03;;;3.80;;
3417;SDS011;68007;51.312;12.372;2024-01-27T09:32:18;16.53;;;4.33;;
3417;SDS011;68007;51.312;12.372;2024-01-27T09:34:46;19.13;;;4.33;;
3417;SDS011;68007;51.312;12.372;2024-01-27T09:37:15;20.37;;;3.43;;
3417;SDS011;68007;51.312;12.372;2024-01-27T09:39:42;14.80;;;3.73;;
3417;SDS011;68007;51.312;12.372;2024-01-27T09:42:10;16.93;;;4.00;;
3417;SDS011;68007;51.312;12.372;2024-01-27T09:44:40;12.77;;;3.43;;
3417;SDS011;68007;51.312;12.372;2024-01-27T09:47:10;17.73;;;3.93;;
3417;SDS011;68007;51.312;12.372;2024-01-27T09:49:38;18.87;;;3.87;;
3417;SDS011;68007;51.312;12.372;2024-01-27T09:52:07;18.20;;;3.80;;
3417;SDS011;68007;51.312;12.372;2024-01-27T09:54:36;14.30;;;3.73;;
3417;SDS011;68007;51.312;12.372;2024-01-27T09:57:04;19.70;;;3.97;;
3417;SDS011;68007;51.312;12.372;2024-01-27T09:59:31;14.73;;;4.20;;
3417;SDS011;68007;51.312;12.372;2024-01-27T10:02:01;16.30;;;3.87;;
3417;SDS011;68007;51.312;12.372;2024-01-27T10:04:30;16.20;;;3.80;;
3417;SDS011;68007;51.312;12.372;2024-01-27T10:06:59;13.03;;;3.60;;
3417;SDS011;68007;51.312;12.372;2024-01-27T10:09:26;17.90;;;4.40;;
3417;SDS011;68007;51.312;12.372;2024-01-27T10:11:55;17.23;;;3.50;;
3417;SDS011;68007;51.312;12.372;2024-01-27T10:14:24;16.00;;;3.67;;
3417;SDS011;68007;51.312;12.372;2024-01-27T10:16:51;20.50;;;5.07;;
3417;SDS011;68007;51.312;12.372;2024-01-27T10:19:19;20.03;;;4.77;;
3417;SDS011;68007;51.312;12.372;2024-01-27T10:21:47;19.60;;;4.30;;
3417;SDS011;68007;51.312;12.372;2024-01-27T10:24:15;15.33;;;4.27;;
3417;SDS011;68007;51.312;12.372;2024-01-27T10:26:42;24.87;;;4.23;;
3417;SDS011;68007;51.312;12.372;2024-01-27T10:29:11;17.17;;;4.33;;
3417;SDS011;68007;51.312;12.372;2024-01-27T10:31:39;19.47;;;4.20;;
3417;SDS011;68007;51.312;12.372;2024-01-27T10:34:08;21.97;;;5.53;;
3417;SDS011;68007;51.312;12.372;2024-01-27T10:36:41;27.03;;;4.50;;
3417;SDS011;68007;51.312;12.372;2024-01-27T10:39:15;11.73;;;3.70;;
3417;SDS011;68007;51.312;12.372;2024-01-27T10:41:44;22.73;;;4.23;;
3417;SDS011;68007;51.312;12.372;2024-01-27T10:44:15;19.07;;;3.53;;
3417;SDS011;68007;51.312;12.372;2024-01-27T10:46:43;18.53;;;4.33;;
3417;SDS011;68007;51.312;12.372;2024-01-27T10:49:13;15.80;;;4.20;;
3417;SDS011;68007;51.312;12.372;2024-01-27T10:51:43;24.70;;;5.37;;
3417;SDS011;68007;51.312;12.372;2024-01-27T10:54:14;16.83;;;4.23;;
3417;SDS011;68007;51.312;12.372;2024-01-27T10:56:45;16.40;;;4.03;;
3417;SDS011;68007;51.312;12.372;2024-01-27T10:59:13;11.60;;;3.63;;
3417;SDS011;68007;51.312;12.372;2024-01-27T11:01:43;16.37;;;4.40;;
3417;SDS011;68007;51.312;12.372;2024-01-27T11:04:12;24.17;;;5.07;;
3417;SDS011;68007;51.312;12.372;2024-01-27T11:06:40;20.00;;;4.40;;
3417;SDS011;68007;51.312;12.372;2024-01-27T11:09:09;18.47;;;4.33;;
3417;SDS011;68007;51.312;12.372;2024-01-27T11:11:38;25.50;;;4.50;;
3417;SDS011;68007;51.312;12.372;2024-01-27T11:14:07;15.00;;;4.07;;
3417;SDS011;68007;51.312;12.372;2024-01-27T11:16:37;27.93;;;4.23;;
3417;SDS011;68007;51.312;12.372;2024-01-27T11:19:09;20.67;;;4.90;;
3417;SDS011;68007;51.312;12.372;2024-01-27T11:21:37;19.23;;;3.90;;
3417;SDS011;68007;51.312;12.372;2024-01-27T11:24:12;24.27;;;5.07;;
3417;SDS011;68007;51.312;12.372;2024-01-27T11:26:41;12.17;;;3.90;;
3417;SDS011;68007;51.312;12.372;2024-01-27T11:29:08;12.93;;;3.60;;
3417;SDS011;68007;51.312;12.372;2024-01-27T11:31:46;10.53;;;3.20;;
3417;SDS011;68007;51.312;12.372;2024-01-27T11:34:14;22.27;;;4.23;;
3417;SDS011;68007;51.312;12.372;2024-01-27T11:36:45;14.57;;;4.60;;
3417;SDS011;68007;51.312;12.372;2024-01-27T11:39:25;24.17;;;3.50;;
3417;SDS011;68007;51.312;12.372;2024-01-27T11:41:53;10.97;;;3.73;;
3417;SDS011;68007;51.312;12.372;2024-01-27T11:44:33;12.73;;;3.70;;
3417;SDS011;68007;51.312;12.372;2024-01-27T11:47:02;18.43;;;4.27;;
3417;SDS011;68007;51.312;12.372;2024-01-27T11:49:31;18.73;;;3.97;;
3417;SDS011;68007;51.312;12.372;2024-01-27T11:52:00;11.70;;;3.80;;
3417;SDS011;68007;51.312;12.372;2024-01-27T11:54:27;20.73;;;3.80;;
3417;SDS011;68007;51.312;12.372;2024-01-27T11:56:55;12.73;;;3.27;;
3417;SDS011;68007;51.312;12.372;2024-01-27T11:59:22;9.60;;;2.80;;
3417;SDS011;68007;51.312;12.372;2024-01-27T12:01:50;17.97;;;3.50;;
3417;SDS011;68007;51.312;12.372;2024-01-27T12:04:19;10.10;;;3.23;;
3417;SDS011;68007;51.312;12.372;2024-01-27T12:06:47;14.87;;;3.57;;
3417;SDS011;68007;51.312;12.372;2024-01-27T12:09:15;13.83;;;3.33;;
3417;SDS011;68007;51.312;12.372;2024-01-27T12:11:44;15.67;;;3.30;;
3417;SDS011;68007;51.312;12.372;2024-01-27T12:14:11;14.43;;;3.00;;
3417;SDS011;68007;51.312;12.372;2024-01-27T12:16:39;14.37;;;3.40;;
3417;SDS011;68007;51.312;12.372;2024-01-27T12:19:09;13.43;;;3.10;;
3417;SDS011;68007;51.312;12.372;2024-01-27T12:21:38;15.80;;;3.50;;
3417;SDS011;68007;51.312;12.372;2024-01-27T12:24:15;13.03;;;3.30;;
3417;SDS011;68007;51.312;12.372;2024-01-27T12:26:44;11.27;;;3.13;;
3417;SDS011;68007;51.312;12.372;2024-01-27T12:29:12;11.43;;;2.40;;
3417;SDS011;68007;51.312;12.372;2024-01-27T12:31:39;11.90;;;3.20;;
3417;SDS011;68007;51.312;12.372;2024-01-27T12:34:07;8.63;;;2.50;;
3417;SDS011;68007;51.312;12.372;2024-01-27T12:36:41;15.77;;;3.63;;
3417;SDS011;68007;51.312;12.372;2024-01-27T12:39:10;22.70;;;3.63;;
3417;SDS011;68007;51.312;12.372;2024-01-27T12:41:37;10.93;;;2.87;;
3417;SDS011;68007;51.312;12.372;2024-01-27T12:44:05;14.63;;;3.57;;
3417;SDS011;68007;51.312;12.372;2024-01-27T12:46:33;19.93;;;3.33;;
3417;SDS011;68007;51.312;12.372;2024-01-27T12:49:01;25.03;;;4.17;;
3417;SDS011;68007;51.312;12.372;2024-01-27T12:51:29;17.23;;;3.90;;
3417;SDS011;68007;51.312;12.372;2024-01-27T12:53:58;15.47;;;3.27;;
3417;SDS011;68007;51.312;12.372;2024-01-27T12:56:25;12.00;;;2.90;;
3417;SDS011;68007;51.312;12.372;2024-01-27T12:58:53;15.73;;;3.33;;
3417;SDS011;68007;51.312;12.372;2024-01-27T13:01:20;13.97;;;3.20;;
3417;SDS011;68007;51.312;12.372;2024-01-27T13:03:49;13.07;;;3.10;;
3417;SDS011;68007;51.312;12.372;2024-01-27T13:06:17;15.43;;;4.00;;
3417;SDS011;68007;51.312;12.372;2024-01-27T13:08:46;18.20;;;3.80;;
3417;SDS011;68007;51.312;12.372;2024-01-27T13:11:15;14.13;;;3.10;;
3417;SDS011;68007;51.312;12.372;2024-01-27T13:13:42;11.43;;;3.30;;
3417;SDS011;68007;51.312;12.372;2024-01-27T13:16:10;11.63;;;3.17;;
3417;SDS011;68007;51.312;12.372;2024-01-27T13:18:38;14.30;;;3.53;;
3417;SDS011;68007;51.312;12.372;2024-01-27T13:21:05;20.83;;;3.43;;
3417;SDS011;68007;51.312;12.372;2024-01-27T13:23:33;9.10;;;2.93;;
3417;SDS011;68007;51.312;12.372;2024-01-27T13:26:01;14.10;;;2.80;;
3417;SDS011;68007;51.312;12.372;2024-01-27T13:28:31;10.63;;;2.83;;
3417;SDS011;68007;51.312;12.372;2024-01-27T13:30:58;13.43;;;2.90;;
3417;SDS011;68007;51.312;12.372;2024-01-27T13:33:26;14.50;;;2.60;;
3417;SDS011;68007;51.312;12.372;2024-01-27T13:35:54;10.57;;;2.90;;
3417;SDS011;68007;51.312;12.372;2024-01-27T13:38:22;9.33;;;2.70;;
3417;SDS011;68007;51.312;12.372;2024-01-27T13:40:49;12.77;;;3.37;;
3417;SDS011;68007;51.312;12.372;2024-01-27T13:43:17;15.63;;;3.27;;
3417;SDS011;68007;51.312;12.372;2024-01-27T13:45:46;14.93;;;3.27;;
3417;SDS011;68007;51.312;12.372;2024-01-27T13:48:14;14.50;;;3.50;;
3417;SDS011;68007;51.312;12.372;2024-01-27T13:50:42;11.00;;;2.60;;
3417;SDS011;68007;51.312;12.372;2024-01-27T13:53:10;7.50;;;2.33;;
3417;SDS011;68007;51.312;12.372;2024-01-27T13:55:38;7.97;;;2.30;;
3417;SDS011;68007;51.312;12.372;2024-01-27T13:58:08;12.43;;;2.63;;
3417;SDS011;68007;51.312;12.372;2024-01-27T14:00:36;7.30;;;2.73;;
3417;SDS011;68007;51.312;12.372;2024-01-27T14:03:04;12.63;;;2.57;;
3417;SDS011;68007;51.312;12.372;2024-01-27T14:05:32;14.10;;;3.00;;
3417;SDS011;68007;51.312;12.372;2024-01-27T14:08:00;10.83;;;2.43;;
3417;SDS011;68007;51.312;12.372;2024-01-27T14:10:27;10.53;;;2.93;;
3417;SDS011;68007;51.312;12.372;2024-01-27T14:12:55;7.53;;;2.33;;
3417;SDS011;68007;51.312;12.372;2024-01-27T14:15:22;14.70;;;2.77;;
3417;SDS011;68007;51.312;12.372;2024-01-27T14:17:50;11.60;;;2.20;;
3417;SDS011;68007;51.312;12.372;2024-01-27T14:20:19;7.27;;;2.17;;
3417;SDS011;68007;51.312;12.372;2024-01-27T14:22:46;13.17;;;3.10;;
3417;SDS011;68007;51.312;12.372;2024-01-27T14:25:14;16.00;;;3.23;;
3417;SDS011;68007;51.312;12.372;2024-01-27T14:27:41;9.30;;;2.40;;
3417;SDS011;68007;51.312;12.372;2024-01-27T14:30:12;8.67;;;2.90;;
3417;SDS011;68007;51.312;12.372;2024-01-27T14:32:40;8.47;;;2.20;;
3417;SDS011;68007;51.312;12.372;2024-01-27T14:35:07;6.53;;;1.90;;
3417;SDS011;68007;51.312;12.372;2024-01-27T14:37:36;10.13;;;2.80;;
3417;SDS011;68007;51.312;12.372;2024-01-27T14:40:04;11.30;;;2.87;;
3417;SDS011;68007;51.312;12.372;2024-01-27T14:42:34;10.93;;;3.20;;